Airfield :
LOGIN :

Register | Disclaimer

   EN    FR    IT 

 










Legend :    VFR   Marginal VFR   IFR   Intensive IFR   Very Intensive IFR
Visi :
Ceiling :
>= 8 km
>= 3000ft
5 to 8 km
1000 to 3000 ft
1500m to 5 km
500 to 1000 ft
800 to 1500m
200 to 500 ft
< 800m
< 200 ft
Symbols :   Thunderstorms  Fog  Heavy snow  Heavy precipitations  Wind > 20 kt
SIGMETs :     Misc.  Thunderstorms  Icing  Turbulence  Mountain Waves  Volcanic Ashes






- Airport Elevation : 433 ft


LFOC - Chateaudun

CURRENT METAR :
  • 282330Z AUTO 25016KT 9999 ////// 06/04 Q1010

EXPIRED METARs :
  • 282300Z AUTO 25014KT 9999 -RA ////// 06/04 Q1010
  • 282230Z AUTO 24009KT 9999 ////// 05/04 Q1010
  • 282200Z AUTO 25009KT 9999 ////// 04/03 Q1009
  • 282130Z AUTO 26010KT 9999 ////// 05/03 Q1009
  • 282100Z AUTO 28011KT 9999 -RA ////// 05/03 Q1009

TAF TAF LFOC
Valid from the 28 at 15:00 until the 29 at 15:00 UTC


281400Z 2815/2915 24020G30KT 9999 BKN035
TEMPO 2815/2819 3500 SHRA BKN030CB
PROB30
TEMPO 2816/2818 25028G40KT 1500 TSRAGS
PROB30
TEMPO 2820/2824 4900 -SHRA SCT030TCU
BECMG 2822/2824 25012KT
PROB30
TEMPO 2903/2906 4900 -SHRA SCT020TCU



MET'MAP, your aeronautical weather chart ! - Copyright ORBIFLY December 2007 - Disclaimer

ORBIFLY MET'MAP TEAM :

Programming & Development : Alexandra Zaïnal
Concept & original design : Baudouin d'Aumeries
Assistance for programming : Marc-Olivier Méhu
Technical & hardware support : Manuel Goepfert

Contact : metmap@orbifly.com




SOURCES & CREDITS :

   NOAA